Time;durP1;ratioP1;P1;durP2;ratioP2;P2;SDS_P1;SDS_P2;PMS_P1;PMS_P2;Temp;Humidity;BMP_temperature;BMP_pressure;BME280_temperature;BME280_humidity;BME280_pressure;Samples;Min_cycle;Max_cycle;Signal;HPM_P1;HPM_P2
2022/08/22 00:01:24;;;;;;;8.70;4.00;;;;;;;-145.69;100.00;71283.00;5072391;28;20199;-75
2022/08/22 00:03:59;;;;;;;6.77;3.60;;;;;;;-145.69;100.00;71279.03;5072470;28;20198;-76
2022/08/22 00:06:35;;;;;;;10.57;3.93;;;;;;;-145.69;100.00;71290.97;5072310;28;20194;-76
2022/08/22 00:09:21;;;;;;;11.13;4.63;;;;;;;-145.69;100.00;71296.94;5072675;28;20227;-75
2022/08/22 00:11:53;;;;;;;8.83;4.27;;;;;;;-145.69;100.00;71290.97;5073112;28;20226;-75
2022/08/22 00:14:24;;;;;;;10.10;4.20;;;;;;;-145.69;100.00;71290.97;5076079;28;20289;-75
2022/08/22 00:17:00;;;;;;;9.67;3.90;;;;;;;-145.69;100.00;71271.06;5076304;28;20233;-75
2022/08/22 00:19:40;;;;;;;11.37;3.90;;;;;;;-145.69;100.00;71247.19;5076164;28;20676;-75
2022/08/22 00:22:13;;;;;;;5.37;3.23;;;;;;;-145.69;100.00;71263.09;5075558;28;20721;-75
2022/08/22 00:24:46;;;;;;;8.07;3.97;;;;;;;-145.69;100.00;71277.03;5075857;28;20191;-76
2022/08/22 00:27:17;;;;;;;7.53;4.00;;;;;;;-145.69;100.00;71286.97;5075553;28;20445;-75
2022/08/22 00:29:50;;;;;;;9.38;4.07;;;;;;;-145.69;100.00;71292.94;5076008;28;20566;-75
2022/08/22 00:32:23;;;;;;;6.72;3.92;;;;;;;-145.69;100.00;71298.94;5076038;28;20588;-75
2022/08/22 00:34:57;;;;;;;7.83;4.00;;;;;;;-145.69;100.00;71304.91;5075909;28;20560;-75
2022/08/22 00:37:30;;;;;;;5.80;3.60;;;;;;;-145.69;100.00;71306.88;5075693;28;20542;-75
2022/08/22 00:40:17;;;;;;;9.87;3.47;;;;;;;-145.69;100.00;71286.97;5075639;28;20289;-75
2022/08/22 00:43:00;;;;;;;6.50;3.53;;;;;;;-145.69;100.00;71283.00;5075631;28;20206;-75
2022/08/22 00:45:40;;;;;;;7.43;3.47;;;;;;;-145.69;100.00;71294.94;5075333;28;20649;-74
2022/08/22 00:48:35;;;;;;;6.57;3.63;;;;;;;-145.69;100.00;71310.84;5058374;28;20317;-75
2022/08/22 00:51:24;;;;;;;6.33;3.63;;;;;;;-145.69;100.00;71322.81;5055630;28;20206;-75
2022/08/22 00:53:56;;;;;;;7.03;4.20;;;;;;;-145.69;100.00;71338.72;5052198;28;20446;-75
2022/08/22 00:56:42;;;;;;;8.87;3.90;;;;;;;-145.69;100.00;71350.66;5075650;28;20221;-74
2022/08/22 00:59:33;;;;;;;7.20;3.97;;;;;;;-145.69;100.00;71348.66;5075168;28;20565;-75
2022/08/22 01:02:15;;;;;;;8.57;3.70;;;;;;;-145.69;100.00;71342.69;5075402;28;20293;-75
2022/08/22 01:05:10;;;;;;;7.47;4.07;;;;;;;-145.69;100.00;71318.81;5065628;28;20443;-75
2022/08/22 01:07:54;;;;;;;10.03;4.17;;;;;;;-145.69;100.00;71302.91;5054918;28;20298;-75
2022/08/22 01:10:35;;;;;;;8.17;3.40;;;;;;;-145.69;100.00;71298.94;5073312;28;20223;-75
2022/08/22 01:13:19;;;;;;;5.68;2.72;;;;;;;-145.69;100.00;71294.94;5074434;28;20845;-76
2022/08/22 01:15:50;;;;;;;5.67;3.23;;;;;;;-145.69;100.00;71300.91;5074743;28;20202;-75
2022/08/22 01:18:35;;;;;;;6.33;3.63;;;;;;;-145.69;100.00;71312.84;5075163;28;20205;-75
2022/08/22 01:21:48;;;;;;;7.03;3.28;;;;;;;-145.69;100.00;71318.81;5074708;28;20209;-75
2022/08/22 01:28:15;;;;;;;5.60;3.60;;;;;;;-145.69;100.00;71320.81;5075085;28;20199;-76
2022/08/22 01:31:15;;;;;;;5.90;3.70;;;;;;;-145.69;100.00;71320.81;5074640;28;20565;-76
2022/08/22 01:34:17;;;;;;;7.53;3.60;;;;;;;-145.69;100.00;71318.81;5069765;28;20294;-75
2022/08/22 01:37:24;;;;;;;4.50;3.00;;;;;;;-145.69;100.00;71326.78;5074751;28;20198;-75
2022/08/22 01:40:15;;;;;;;8.30;3.50;;;;;;;-145.69;100.00;71338.72;5041696;28;20230;-75
2022/08/22 01:42:58;;;;;;;8.43;3.40;;;;;;;-145.69;100.00;71342.69;5074641;28;20298;-75
2022/08/22 01:46:07;;;;;;;11.47;3.70;;;;;;;-145.69;100.00;71354.63;5058894;28;20191;-75
2022/08/22 01:48:39;;;;;;;8.03;3.63;;;;;;;-145.69;100.00;71352.66;5074279;28;20245;-76
2022/08/22 01:51:20;;;;;;;8.80;3.57;;;;;;;-145.69;100.00;71346.69;5074361;28;20198;-75
2022/08/22 01:53:56;;;;;;;7.27;3.30;;;;;;;-145.69;100.00;71318.81;5074386;28;20202;-75
2022/08/22 01:56:25;;;;;;;6.70;3.70;;;;;;;-145.69;100.00;71286.97;5073766;28;20248;-75
2022/08/22 01:58:58;;;;;;;8.20;3.70;;;;;;;-145.69;100.00;71279.03;5074090;28;20198;-75
2022/08/22 02:01:41;;;;;;;6.23;3.53;;;;;;;-145.69;100.00;71259.13;5074305;28;20199;-76
2022/08/22 02:04:16;;;;;;;4.82;2.70;;;;;;;-145.69;100.00;71267.09;5074160;28;20213;-75
2022/08/22 02:06:58;;;;;;;5.43;3.20;;;;;;;-145.69;100.00;71279.03;5074151;28;20210;-75
2022/08/22 02:09:38;;;;;;;7.67;3.33;;;;;;;-145.69;100.00;71283.00;5074050;28;20194;-75
2022/08/22 02:12:26;;;;;;;8.43;3.10;;;;;;;-145.69;100.00;71288.97;5073520;28;20217;-75
2022/08/22 02:15:07;;;;;;;5.47;3.23;;;;;;;-145.69;100.00;71285.00;5073890;28;20653;-75
2022/08/22 02:17:52;;;;;;;4.90;3.10;;;;;;;-145.69;100.00;71294.94;5073952;28;20550;-75
2022/08/22 02:20:24;;;;;;;5.32;2.92;;;;;;;-145.69;100.00;71290.97;5073189;28;20588;-75
2022/08/22 02:22:59;;;;;;;4.73;3.07;;;;;;;-145.69;100.00;71294.94;5073845;28;20206;-76
2022/08/22 02:25:31;;;;;;;9.67;3.23;;;;;;;-145.69;100.00;71294.94;5073650;28;20650;-76
2022/08/22 02:28:06;;;;;;;5.73;2.90;;;;;;;-145.69;100.00;71288.97;5073279;28;20645;-76
2022/08/22 02:30:47;;;;;;;9.10;3.30;;;;;;;-145.69;100.00;71286.97;5073799;28;20230;-76
2022/08/22 02:33:25;;;;;;;6.00;3.27;;;;;;;-145.69;100.00;71294.94;5073500;28;20682;-76
2022/08/22 02:35:59;;;;;;;7.30;3.17;;;;;;;-145.69;100.00;71310.84;5073234;28;20209;-76
2022/08/22 02:38:32;;;;;;;6.23;3.07;;;;;;;-145.69;100.00;71306.88;5073608;28;20202;-76
2022/08/22 02:41:10;;;;;;;5.73;2.70;;;;;;;-145.69;100.00;71302.91;5073338;28;20226;-75
2022/08/22 02:43:45;;;;;;;6.47;3.30;;;;;;;-145.69;100.00;71308.88;5070935;28;20642;-75
2022/08/22 02:46:22;;;;;;;10.07;2.90;;;;;;;-145.69;100.00;71302.91;5053278;28;20203;-76
2022/08/22 02:48:57;;;;;;;6.93;2.83;;;;;;;-145.69;100.00;71304.91;5053428;28;20585;-75
2022/08/22 02:51:34;;;;;;;12.30;3.30;;;;;;;-145.69;100.00;71318.81;5053627;28;20553;-75
2022/08/22 02:54:14;;;;;;;6.97;3.20;;;;;;;-145.69;100.00;71310.84;5053390;28;20203;-76
2022/08/22 02:56:46;;;;;;;5.87;3.33;;;;;;;-145.69;100.00;71316.84;5063360;28;20260;-75
2022/08/22 02:59:23;;;;;;;5.33;3.27;;;;;;;-145.69;100.00;71304.91;5073256;28;20203;-75
2022/08/22 03:01:51;;;;;;;7.57;3.67;;;;;;;-145.69;100.00;71292.94;5073237;28;20240;-75
2022/08/22 03:04:25;;;;;;;8.60;3.23;;;;;;;-145.69;100.00;71294.94;5073286;28;20293;-75
2022/08/22 03:07:08;;;;;;;5.50;3.13;;;;;;;-145.69;100.00;71294.94;5073385;28;20249;-76
2022/08/22 03:09:41;;;;;;;4.93;2.97;;;;;;;-145.69;100.00;71283.00;5073231;28;20289;-75
2022/08/22 03:12:19;;;;;;;7.60;3.10;;;;;;;-145.69;100.00;71285.00;5072960;28;20651;-75
2022/08/22 03:14:54;;;;;;;7.93;3.53;;;;;;;-145.69;100.00;71290.97;5073113;28;20210;-75
2022/08/22 03:17:29;;;;;;;9.47;3.30;;;;;;;-145.69;100.00;71306.88;5073072;28;20251;-75
2022/08/22 03:20:01;;;;;;;5.77;3.00;;;;;;;-145.69;100.00;71310.84;5072684;28;20253;-75
2022/08/22 03:22:40;;;;;;;5.50;2.93;;;;;;;-145.69;100.00;71314.84;5072982;28;20203;-75
2022/08/22 03:25:18;;;;;;;5.70;3.03;;;;;;;-145.69;100.00;71338.72;5072774;28;20593;-75
2022/08/22 03:27:56;;;;;;;5.17;3.53;;;;;;;-145.69;100.00;71360.59;5072997;28;20476;-75
2022/08/22 03:30:29;;;;;;;7.82;3.50;;;;;;;-145.69;100.00;71370.56;5072685;28;20430;-75
2022/08/22 03:32:58;;;;;;;7.50;3.80;;;;;;;-145.69;100.00;71380.50;5072895;28;20203;-75
2022/08/22 03:35:33;;;;;;;8.33;3.27;;;;;;;-145.69;100.00;71370.56;5072882;28;20202;-75
2022/08/22 03:38:18;;;;;;;13.27;3.53;;;;;;;-145.69;100.00;71376.53;5072840;28;20603;-74
2022/08/22 03:41:09;;;;;;;11.70;3.60;;;;;;;-145.69;100.00;71368.56;5072453;28;20577;-75
2022/08/22 03:43:55;;;;;;;4.77;3.10;;;;;;;-145.69;100.00;71364.59;5072706;28;20214;-75
2022/08/22 03:46:45;;;;;;;7.07;3.27;;;;;;;-145.69;100.00;71350.66;5072745;28;20199;-76
2022/08/22 03:49:47;;;;;;;8.10;3.40;;;;;;;-145.69;100.00;71342.69;5076739;28;20264;-75
2022/08/22 03:52:33;;;;;;;5.00;3.00;;;;;;;-145.69;100.00;71336.72;5076932;28;20202;-76
2022/08/22 03:55:22;;;;;;;8.47;3.50;;;;;;;-145.69;100.00;71334.75;5076558;28;20199;-76
2022/08/22 03:58:07;;;;;;;12.20;3.97;;;;;;;-145.69;100.00;71338.72;5076998;28;20203;-75
2022/08/22 04:00:58;;;;;;;6.60;3.30;;;;;;;-145.69;100.00;71352.66;5076717;28;20336;-75
2022/08/22 04:04:01;;;;;;;6.97;3.33;;;;;;;-145.69;100.00;71352.66;5076353;28;20221;-75
2022/08/22 04:07:00;;;;;;;5.10;3.03;;;;;;;-145.69;100.00;71354.63;5076672;28;20203;-75
2022/08/22 04:10:15;;;;;;;7.43;2.73;;;;;;;-145.69;100.00;71362.59;5076030;28;20195;-75
2022/08/22 04:13:28;;;;;;;5.57;3.10;;;;;;;-145.69;100.00;71350.66;5034100;28;20452;-75
2022/08/22 04:16:14;;;;;;;6.17;3.23;;;;;;;-145.69;100.00;71342.69;4965411;28;20569;-74
2022/08/22 04:19:04;;;;;;;9.40;2.87;;;;;;;-145.69;100.00;71342.69;5076060;28;20293;-76
2022/08/22 04:21:57;;;;;;;4.73;3.13;;;;;;;-145.69;100.00;71338.72;5076070;28;20241;-75
2022/08/22 04:24:38;;;;;;;6.67;3.00;;;;;;;-145.69;100.00;71334.75;5075733;28;20206;-75
2022/08/22 04:27:16;;;;;;;5.80;2.90;;;;;;;-145.69;100.00;71326.78;5076302;28;20198;-75
2022/08/22 04:29:49;;;;;;;3.93;2.77;;;;;;;-145.69;100.00;71314.84;5075782;28;20205;-75
2022/08/22 04:32:25;;;;;;;6.33;3.17;;;;;;;-145.69;100.00;71316.84;5075962;28;20202;-75
2022/08/22 04:34:57;;;;;;;8.20;3.20;;;;;;;-145.69;100.00;71300.91;5075692;28;20202;-75
2022/08/22 04:37:34;;;;;;;7.80;3.07;;;;;;;-145.69;100.00;71302.91;5075935;28;20202;-75
2022/08/22 04:40:10;;;;;;;9.53;3.73;;;;;;;-145.69;100.00;71318.81;5075505;28;20218;-75
2022/08/22 04:42:43;;;;;;;4.47;2.67;;;;;;;-145.69;100.00;71326.78;5074394;28;20214;-75
2022/08/22 04:45:16;;;;;;;7.57;3.23;;;;;;;-145.69;100.00;71330.75;5073567;28;20282;-75
2022/08/22 04:47:49;;;;;;;7.07;3.57;;;;;;;-145.69;100.00;71348.66;5075622;28;20256;-75
2022/08/22 04:50:22;;;;;;;6.50;3.40;;;;;;;-145.69;100.00;71352.66;5075593;28;20241;-75
2022/08/22 04:53:03;;;;;;;7.23;3.07;;;;;;;-145.69;100.00;71350.66;5075515;28;20195;-75
2022/08/22 04:55:36;;;;;;;7.53;3.23;;;;;;;-145.69;100.00;71338.72;5075353;28;20214;-75
2022/08/22 04:58:19;;;;;;;4.73;3.23;;;;;;;-145.69;100.00;71338.72;5075609;28;20561;-75
2022/08/22 05:00:54;;;;;;;10.77;3.40;;;;;;;-145.69;100.00;71332.75;5075504;28;20237;-74
2022/08/22 05:03:25;;;;;;;6.33;3.20;;;;;;;-145.69;100.00;71328.78;5075588;28;20213;-75
2022/08/22 05:05:54;;;;;;;5.50;3.47;;;;;;;-145.69;100.00;71338.72;5075310;28;20285;-75
2022/08/22 05:08:25;;;;;;;7.33;3.00;;;;;;;-145.69;100.00;71314.84;5074958;28;20199;-75
2022/08/22 05:10:53;;;;;;;6.43;2.97;;;;;;;-145.69;100.00;71314.84;5075362;28;20211;-75
2022/08/22 05:13:24;;;;;;;6.40;3.30;;;;;;;-145.69;100.00;71308.88;5074973;28;20756;-75
2022/08/22 05:15:57;;;;;;;7.57;3.27;;;;;;;-145.69;100.00;71312.84;5075362;28;20565;-75
2022/08/22 05:18:28;;;;;;;7.93;3.03;;;;;;;-145.69;100.00;71318.81;5074854;28;20199;-75
2022/08/22 05:20:58;;;;;;;8.33;3.40;;;;;;;-145.69;100.00;71332.75;5074884;28;20225;-75
2022/08/22 05:23:29;;;;;;;5.87;3.47;;;;;;;-145.69;100.00;71320.81;5074958;28;20199;-75
2022/08/22 05:25:59;;;;;;;7.30;3.53;;;;;;;-145.69;100.00;71318.81;5075103;28;20626;-75
2022/08/22 05:28:34;;;;;;;7.27;3.67;;;;;;;-145.69;100.00;71302.91;5074793;28;20202;-75
2022/08/22 05:31:04;;;;;;;5.87;3.30;;;;;;;-145.69;100.00;71298.94;5074783;28;20281;-75
2022/08/22 05:33:37;;;;;;;7.90;3.50;;;;;;;-145.69;100.00;71286.97;5074733;28;20233;-75
2022/08/22 05:36:08;;;;;;;8.40;3.43;;;;;;;-145.69;100.00;71279.03;5074905;28;20205;-75
2022/08/22 05:38:44;;;;;;;6.43;3.80;;;;;;;-145.69;100.00;71275.03;5054845;28;20208;-75
2022/08/22 05:41:18;;;;;;;5.97;3.03;;;;;;;-145.69;100.00;71271.06;5066556;28;20233;-75
2022/08/22 05:43:47;;;;;;;7.07;3.27;;;;;;;-145.69;100.00;71251.16;5074821;28;20222;-75
2022/08/22 05:46:20;;;;;;;4.17;2.50;;;;;;;-145.69;100.00;71245.19;5074722;28;20228;-74
2022/08/22 05:48:54;;;;;;;4.53;2.77;;;;;;;-145.69;100.00;71235.25;5074460;28;20231;-74
2022/08/22 05:51:26;;;;;;;5.40;3.10;;;;;;;-145.69;100.00;71207.38;5074412;28;20202;-74
2022/08/22 05:54:06;;;;;;;7.85;2.97;;;;;;;-145.69;100.00;71195.47;5074186;28;20289;-77
2022/08/22 05:56:37;;;;;;;6.00;3.00;;;;;;;-145.69;100.00;71197.44;5074282;28;20660;-75
2022/08/22 05:59:14;;;;;;;6.05;2.60;;;;;;;-145.69;100.00;71187.50;5074463;28;20207;-76
2022/08/22 06:01:52;;;;;;;6.10;2.78;;;;;;;-145.69;100.00;71179.53;5073948;28;20228;-76
2022/08/22 06:04:30;;;;;;;7.53;2.75;;;;;;;-145.69;100.00;71175.56;5074133;28;20205;-76
2022/08/22 06:07:02;;;;;;;4.45;2.65;;;;;;;-145.69;100.00;71159.63;5074211;28;20195;-75
2022/08/22 06:09:32;;;;;;;5.15;2.75;;;;;;;-145.69;100.00;71139.75;5073617;28;20218;-75
2022/08/22 06:12:04;;;;;;;7.75;2.72;;;;;;;-145.69;100.00;71115.88;5073727;28;20195;-75
2022/08/22 06:14:41;;;;;;;6.50;2.60;;;;;;;-145.69;100.00;71113.88;5073962;28;20295;-76
2022/08/22 06:17:11;;;;;;;5.85;3.40;;;;;;;-145.69;100.00;71117.84;5074062;28;20202;-75
2022/08/22 06:19:42;;;;;;;4.30;2.90;;;;;;;-145.69;100.00;71113.88;5074054;28;20213;-76
2022/08/22 06:22:11;;;;;;;6.20;2.90;;;;;;;-145.69;100.00;71107.91;5073415;28;20218;-76
2022/08/22 06:24:39;;;;;;;6.25;2.97;;;;;;;-145.69;100.00;71099.94;5073893;28;20237;-76
2022/08/22 06:27:16;;;;;;;3.60;2.95;;;;;;;-145.69;100.00;71088.00;5073788;28;20218;-76
2022/08/22 06:29:47;;;;;;;5.53;3.03;;;;;;;-145.69;100.00;71074.09;5073951;28;20256;-76
2022/08/22 06:32:16;;;;;;;4.65;2.92;;;;;;;-145.69;100.00;71064.13;5073544;28;20209;-75
2022/08/22 06:34:47;;;;;;;5.15;3.13;;;;;;;-145.69;100.00;71038.25;5073318;28;20434;-76
2022/08/22 06:37:20;;;;;;;4.85;3.15;;;;;;;-145.69;100.00;71014.38;5073753;28;20350;-75
2022/08/22 06:39:54;;;;;;;5.03;2.80;;;;;;;-145.69;100.00;70992.50;5073454;28;20260;-74
2022/08/22 06:42:24;;;;;;;5.50;2.95;;;;;;;-145.69;100.00;70960.66;5073483;28;20332;-74
2022/08/22 06:44:54;;;;;;;6.38;2.42;;;;;;;-145.69;100.00;70932.81;5073163;28;20241;-75
2022/08/22 06:47:26;;;;;;;4.88;2.42;;;;;;;-145.69;100.00;70912.91;5073267;28;20313;-76
2022/08/22 06:49:59;;;;;;;3.22;2.17;;;;;;;-145.69;100.00;70875.13;5073332;28;20286;-76
2022/08/22 06:52:28;;;;;;;3.72;2.45;;;;;;;-145.69;100.00;70849.25;5073472;28;20213;-75
2022/08/22 06:54:59;;;;;;;4.20;2.33;;;;;;;-145.69;100.00;70821.41;5073458;28;20290;-75
2022/08/22 06:57:33;;;;;;;6.43;2.63;;;;;;;-145.69;100.00;70789.56;5073420;28;20241;-75
2022/08/22 07:00:03;;;;;;;4.90;2.58;;;;;;;-145.69;100.00;70759.72;5073061;28;20714;-75
2022/08/22 07:02:36;;;;;;;5.15;2.55;;;;;;;-145.69;100.00;70741.81;5073126;28;20573;-75
2022/08/22 07:05:05;;;;;;;4.40;2.13;;;;;;;-145.69;94.92;70715.94;5073217;28;20273;-75
2022/08/22 07:07:32;;;;;;;4.15;2.45;;;;;;;-145.69;96.36;70686.09;5073235;28;20203;-75
2022/08/22 07:09:58;;;;;;;10.27;2.45;;;;;;;-145.69;92.44;70662.22;5072992;28;20275;-75
2022/08/22 07:12:29;;;;;;;5.20;2.20;;;;;;;-145.69;91.20;70630.41;5072911;28;20205;-75
2022/08/22 07:15:01;;;;;;;9.15;2.28;;;;;;;-145.69;90.89;70622.44;5072644;28;20202;-75
2022/08/22 07:17:31;;;;;;;6.30;2.88;;;;;;;-145.69;93.11;70610.50;5073405;28;20676;-75
2022/08/22 07:20:02;;;;;;;4.72;2.70;;;;;;;-145.69;92.05;70598.56;5073096;28;20202;-76
2022/08/22 07:22:33;;;;;;;5.80;2.55;;;;;;;-145.69;94.12;70570.72;5072052;28;20223;-76
2022/08/22 07:25:06;;;;;;;3.78;2.38;;;;;;;-145.69;90.47;70548.84;5072937;28;20669;-77
2022/08/22 07:27:47;;;;;;;4.65;2.58;;;;;;;-145.69;89.52;70542.88;5072662;28;20600;-77
2022/08/22 07:30:17;;;;;;;4.90;2.42;;;;;;;-145.69;89.21;70524.97;5072702;28;20216;-77
2022/08/22 07:32:51;;;;;;;5.10;2.42;;;;;;;-145.69;88.87;70526.94;5073166;28;20312;-75
2022/08/22 07:35:22;;;;;;;4.97;2.63;;;;;;;-145.69;87.17;70511.03;5072892;28;20194;-76
2022/08/22 07:37:58;;;;;;;4.85;2.40;;;;;;;-145.69;86.95;70503.06;5072268;28;20904;-77
2022/08/22 07:40:30;;;;;;;8.00;2.35;;;;;;;-145.69;79.26;70501.09;5072645;28;20664;-76
2022/08/22 07:43:04;;;;;;;10.88;2.20;;;;;;;-145.69;80.58;70495.13;5072897;28;20203;-76
2022/08/22 07:45:35;;;;;;;5.63;2.50;;;;;;;-145.69;82.66;70483.19;5072566;28;20560;-75
2022/08/22 07:48:19;;;;;;;5.55;2.28;;;;;;;-145.69;80.44;70489.16;5072508;28;20238;-76
2022/08/22 07:50:56;;;;;;;4.18;2.00;;;;;;;-145.69;84.04;70491.13;5072837;28;20289;-77
2022/08/22 07:53:30;;;;;;;6.38;2.35;;;;;;;-145.69;83.96;70471.25;5072806;28;20252;-74
2022/08/22 07:56:00;;;;;;;3.67;2.30;;;;;;;-145.69;83.26;70439.41;5072545;28;20221;-76
2022/08/22 07:58:29;;;;;;;5.93;2.67;;;;;;;-145.69;79.85;70469.25;5072685;28;20557;-76
2022/08/22 08:00:57;;;;;;;6.13;2.47;;;;;;;-145.69;81.78;70451.34;5071958;28;20310;-76
2022/08/22 08:03:27;;;;;;;3.95;2.38;;;;;;;-145.69;84.12;70423.50;5072201;28;20202;-77
2022/08/22 08:05:55;;;;;;;5.72;2.30;;;;;;;-145.69;76.75;70403.59;5072391;28;20241;-77
2022/08/22 08:08:32;;;;;;;10.23;2.67;;;;;;;-145.69;80.01;70395.66;5072476;28;20237;-77
2022/08/22 08:11:00;;;;;;;3.22;2.15;;;;;;;-145.69;81.08;70375.75;5072470;28;20548;-76
2022/08/22 08:13:33;;;;;;;7.78;2.92;;;;;;;-145.69;78.48;70383.72;5072569;28;20635;-76
2022/08/22 08:16:02;;;;;;;6.30;2.22;;;;;;;-145.69;79.72;70369.78;5072615;28;20279;-76
2022/08/22 08:18:33;;;;;;;12.02;2.40;;;;;;;-145.69;79.80;70339.94;5066515;28;20588;-75
2022/08/22 08:21:03;;;;;;;5.28;2.28;;;;;;;-145.69;74.24;70328.00;5072094;28;20226;-76
2022/08/22 08:23:37;;;;;;;6.30;2.40;;;;;;;-145.69;73.02;70300.16;5072308;28;20434;-76
2022/08/22 08:26:10;;;;;;;6.97;2.63;;;;;;;-145.69;71.82;70324.03;5072231;28;20201;-76
2022/08/22 08:28:40;;;;;;;4.60;2.28;;;;;;;-145.69;72.12;70375.75;5072337;28;20241;-75
2022/08/22 08:31:13;;;;;;;4.32;2.58;;;;;;;-145.69;74.51;70373.78;5072559;28;20202;-75
2022/08/22 08:33:44;;;;;;;2.80;2.28;;;;;;;-145.69;72.80;70399.63;5074223;28;20195;-76
2022/08/22 08:36:25;;;;;;;4.38;2.67;;;;;;;-145.69;73.65;70427.47;5075937;28;20229;-76
2022/08/22 08:39:00;;;;;;;3.67;2.13;;;;;;;-145.69;76.09;70449.38;5075698;28;20289;-75
2022/08/22 08:42:11;;;;;;;3.90;2.50;;;;;;;-145.69;76.94;70471.25;5075625;28;20237;-76
2022/08/22 08:45:06;;;;;;;7.82;2.90;;;;;;;-145.69;78.77;70503.06;5075792;28;20241;-76
2022/08/22 08:47:48;;;;;;;5.55;2.75;;;;;;;-145.69;79.80;70519.00;5075488;28;20237;-75
2022/08/22 08:50:41;;;;;;;3.92;2.40;;;;;;;-145.69;79.85;70534.91;5064969;28;20199;-76
2022/08/22 08:53:37;;;;;;;4.18;2.30;;;;;;;-145.69;84.50;70548.84;5059900;28;20589;-77
2022/08/22 08:56:16;;;;;;;4.75;2.78;;;;;;;-145.69;89.02;70562.75;5055991;28;20203;-78
2022/08/22 08:58:56;;;;;;;4.95;2.42;;;;;;;-145.69;91.77;70582.66;5055478;28;20294;-78
2022/08/22 09:02:02;;;;;;;4.05;2.30;;;;;;;-145.69;96.14;70594.59;5054182;28;20281;-75
2022/08/22 09:04:49;;;;;;;4.90;2.67;;;;;;;-145.69;96.67;70612.50;5046810;28;20693;-77
2022/08/22 09:07:37;;;;;;;4.65;2.70;;;;;;;-145.69;97.62;70616.47;5073925;28;20194;-76
2022/08/22 09:10:29;;;;;;;7.45;2.97;;;;;;;-145.69;94.42;70606.53;5074298;28;20195;-76
2022/08/22 09:13:20;;;;;;;4.97;2.72;;;;;;;-145.69;98.32;70592.59;5074142;28;20233;-77
2022/08/22 09:15:59;;;;;;;7.10;2.60;;;;;;;-145.69;96.95;70562.75;5074584;28;20244;-76
2022/08/22 09:18:38;;;;;;;4.22;2.53;;;;;;;-145.69;89.24;70505.06;5075186;28;20198;-77
2022/08/22 09:21:32;;;;;;;11.70;2.60;;;;;;;-145.69;80.45;70445.38;5075097;28;20199;-76
2022/08/22 09:24:18;;;;;;;7.90;2.85;;;;;;;-145.69;75.14;70363.81;5074929;28;20198;-76
2022/08/22 09:26:48;;;;;;;5.90;2.20;;;;;;;-145.69;68.92;70316.06;5075167;28;20301;-78
2022/08/22 09:29:36;;;;;;;6.80;2.95;;;;;;;-145.69;61.83;70302.16;5075115;28;20199;-76
2022/08/22 09:32:09;;;;;;;9.30;2.78;;;;;;;-145.69;60.88;70296.19;5074883;28;20576;-78
2022/08/22 09:34:46;;;;;;;4.93;2.58;;;;;;;-145.69;58.25;70272.31;5074617;28;20620;-76
2022/08/22 09:37:19;;;;;;;6.43;2.42;;;;;;;-145.69;50.37;70264.34;5074925;28;20237;-76
2022/08/22 09:39:58;;;;;;;4.72;2.10;;;;;;;-145.69;52.84;70248.44;5075099;28;20234;-76
2022/08/22 09:42:33;;;;;;;3.78;2.25;;;;;;;-145.69;55.31;70232.53;5074882;28;20230;-77
2022/08/22 09:45:38;;;;;;;9.02;2.47;;;;;;;-145.69;53.88;70252.41;5073696;28;20198;-76
2022/08/22 09:48:13;;;;;;;5.38;1.92;;;;;;;-145.69;53.27;70272.31;5067400;28;20238;-77
2022/08/22 09:50:51;;;;;;;4.28;2.03;;;;;;;-145.69;52.48;70294.19;5074753;28;20198;-77
2022/08/22 09:53:35;;;;;;;6.35;2.28;;;;;;;-145.69;54.48;70268.34;5074710;28;20206;-76
2022/08/22 09:56:06;;;;;;;3.15;1.90;;;;;;;-145.69;51.61;70264.34;5074673;28;20210;-76
2022/08/22 09:58:39;;;;;;;4.35;2.30;;;;;;;-145.69;52.94;70264.34;5074330;28;20554;-77
2022/08/22 10:01:19;;;;;;;4.18;2.30;;;;;;;-145.69;53.41;70260.38;5074205;28;20526;-76
2022/08/22 10:04:27;;;;;;;6.45;2.65;;;;;;;-145.69;50.92;70280.28;5073609;28;20190;-76
2022/08/22 10:07:03;;;;;;;4.80;2.30;;;;;;;-145.69;53.55;70258.38;5071051;28;20214;-76
2022/08/22 10:09:44;;;;;;;4.55;2.20;;;;;;;-145.69;56.12;70230.53;5074101;28;20204;-76
2022/08/22 10:12:15;;;;;;;4.72;2.58;;;;;;;-145.69;54.50;70224.56;5074035;28;20663;-76
2022/08/22 10:14:54;;;;;;;5.20;2.20;;;;;;;-145.69;53.63;70218.59;5073843;28;20434;-76
2022/08/22 10:17:29;;;;;;;4.35;2.33;;;;;;;-145.69;54.31;70226.56;5073667;28;20198;-76
2022/08/22 10:20:04;;;;;;;5.05;2.13;;;;;;;-145.69;54.36;70232.53;5073754;28;20747;-76
2022/08/22 10:22:42;;;;;;;5.65;2.35;;;;;;;-145.69;55.88;70224.56;5073685;28;20650;-76
2022/08/22 10:25:31;;;;;;;3.92;2.17;;;;;;;-145.69;55.19;70200.69;5074073;28;20205;-75
2022/08/22 10:28:16;;;;;;;3.58;1.92;;;;;;;-145.69;52.85;70172.84;5073800;28;20282;-76
2022/08/22 10:30:53;;;;;;;4.15;2.15;;;;;;;-145.69;54.11;70141.03;5073827;28;20763;-76
2022/08/22 10:33:33;;;;;;;3.50;1.98;;;;;;;-145.69;48.77;70148.97;5072457;28;20214;-76
2022/08/22 10:36:06;;;;;;;7.20;2.22;;;;;;;-145.69;49.16;70145.00;5073257;28;20222;-76
2022/08/22 10:38:39;;;;;;;6.05;2.45;;;;;;;-145.69;47.81;70117.16;5073412;28;20203;-77
2022/08/22 10:41:17;;;;;;;6.22;2.25;;;;;;;-145.69;48.00;70101.25;5072855;28;20609;-76
2022/08/22 10:43:49;;;;;;;5.47;2.13;;;;;;;-145.69;43.09;70069.41;5073431;28;20573;-77
2022/08/22 10:46:20;;;;;;;9.43;1.90;;;;;;;-145.69;45.90;70073.38;5073067;28;20744;-76
2022/08/22 10:48:51;;;;;;;7.55;2.00;;;;;;;-145.69;47.65;70073.38;5072044;28;20767;-77
2022/08/22 10:51:24;;;;;;;5.35;2.33;;;;;;;-145.69;44.18;70073.38;5071162;28;20284;-76
2022/08/22 10:54:09;;;;;;;6.22;2.13;;;;;;;-145.69;45.82;70061.44;5073269;28;20202;-76
2022/08/22 10:56:41;;;;;;;4.28;2.10;;;;;;;-145.69;49.37;70069.41;5070029;28;20199;-76
2022/08/22 10:59:23;;;;;;;2.85;1.80;;;;;;;-145.69;44.38;70097.25;5071721;28;20198;-76
2022/08/22 11:02:00;;;;;;;4.90;2.10;;;;;;;-145.69;42.46;70101.25;5072454;28;20222;-76
2022/08/22 11:04:43;;;;;;;5.28;2.20;;;;;;;-145.69;43.61;70083.34;5072941;28;20197;-74
2022/08/22 11:07:19;;;;;;;4.57;2.38;;;;;;;-145.69;40.48;70069.41;5072966;28;20661;-77
2022/08/22 11:09:57;;;;;;;6.90;2.00;;;;;;;-145.69;40.43;70097.25;5072719;28;20205;-75
2022/08/22 11:12:35;;;;;;;4.22;2.42;;;;;;;-145.69;48.36;70055.47;5072898;28;20218;-77
2022/08/22 11:15:12;;;;;;;7.65;2.33;;;;;;;-145.69;42.36;70039.56;5073368;28;20617;-77
2022/08/22 11:18:23;;;;;;;7.57;2.33;;;;;;;-145.69;42.28;70077.38;5073048;28;20202;-78
2022/08/22 11:20:58;;;;;;;10.15;2.08;;;;;;;-145.69;45.08;70041.56;5052816;28;20203;-77
2022/08/22 11:23:37;;;;;;;6.00;2.40;;;;;;;-145.69;42.82;69995.81;5072786;28;20321;-76
2022/08/22 11:26:19;;;;;;;7.68;2.20;;;;;;;-145.69;44.86;69958.00;5072305;28;20203;-76
2022/08/22 11:29:02;;;;;;;5.22;2.20;;;;;;;-145.69;42.79;69934.16;5073030;28;20202;-77
2022/08/22 11:31:48;;;;;;;6.30;2.40;;;;;;;-145.69;44.48;69926.19;5072859;28;20199;-76
2022/08/22 11:34:27;;;;;;;3.70;2.00;;;;;;;-145.69;39.68;69938.13;5072421;28;20187;-76
2022/08/22 11:37:00;;;;;;;4.63;2.40;;;;;;;-145.69;38.83;69973.94;5072969;28;20202;-77
2022/08/22 11:39:40;;;;;;;4.75;2.25;;;;;;;-145.69;40.80;69991.84;5072492;28;20653;-76
2022/08/22 11:42:16;;;;;;;4.88;2.50;;;;;;;-145.69;42.97;70033.59;5072708;28;20210;-76
2022/08/22 11:44:49;;;;;;;5.43;2.20;;;;;;;-145.69;41.29;70079.34;5072677;28;20206;-77
2022/08/22 11:47:19;;;;;;;4.57;2.42;;;;;;;-145.69;44.20;70011.72;5072744;28;20609;-75
2022/08/22 11:49:56;;;;;;;5.53;2.13;;;;;;;-145.69;42.35;69965.97;5072579;28;20191;-76
2022/08/22 11:52:51;;;;;;;4.90;2.00;;;;;;;-145.69;39.65;69942.09;5072610;28;20202;-76
2022/08/22 11:55:23;;;;;;;3.42;1.80;;;;;;;-145.69;41.27;69918.22;5072701;28;20198;-77
2022/08/22 11:57:54;;;;;;;4.60;2.03;;;;;;;-145.69;41.12;69894.38;5072744;28;20199;-76
2022/08/22 12:00:29;;;;;;;5.70;2.00;;;;;;;-145.69;40.36;69854.59;5072568;28;20195;-76
2022/08/22 12:03:32;;;;;;;5.18;2.13;;;;;;;-145.69;38.32;69824.75;5070229;28;20233;-76
2022/08/22 12:06:06;;;;;;;4.90;2.08;;;;;;;-145.69;40.98;69782.97;5063403;28;20447;-75